createdAt,value
2019-03-21T00:01:39.518Z,50.36
2019-03-21T00:04:10.883Z,49.45
2019-03-21T00:06:39.524Z,50.07
2019-03-21T00:09:10.529Z,49.55
2019-03-21T00:11:56.885Z,48.91
2019-03-21T00:14:49.109Z,48.42
2019-03-21T00:17:35.314Z,49.01
2019-03-21T00:20:06.316Z,48.71
2019-03-21T00:22:34.938Z,49.09
2019-03-21T00:25:04.165Z,49.42
2019-03-21T00:27:32.834Z,50.37
2019-03-21T00:30:01.472Z,50.88
2019-03-21T00:32:30.091Z,51.20
2019-03-21T00:34:58.753Z,50.01
2019-03-21T00:37:27.238Z,48.58
2019-03-21T00:39:55.864Z,49.58
2019-03-21T00:42:24.525Z,48.98
2019-03-21T00:44:53.153Z,49.09
2019-03-21T00:47:21.779Z,49.24
2019-03-21T00:49:50.445Z,48.43
2019-03-21T00:52:19.068Z,49.39
2019-03-21T00:54:47.701Z,51.10
2019-03-21T00:57:16.354Z,51.42
2019-03-21T00:59:44.912Z,50.63
2019-03-21T01:02:13.547Z,49.95
2019-03-21T01:04:42.213Z,50.39
2019-03-21T01:07:10.841Z,50.24
2019-03-21T01:09:39.567Z,50.76
2019-03-21T01:12:08.374Z,50.54
2019-03-21T01:14:36.986Z,51.55
2019-03-21T01:17:05.614Z,50.96
2019-03-21T01:19:34.288Z,50.56
2019-03-21T01:22:02.920Z,48.94
2019-03-21T01:24:31.558Z,48.12
2019-03-21T01:27:00.252Z,47.14
2019-03-21T01:29:28.852Z,46.90
2019-03-21T01:31:57.484Z,46.59
2019-03-21T01:34:26.150Z,46.37
2019-03-21T01:36:54.783Z,47.09
2019-03-21T01:39:23.415Z,47.20
2019-03-21T01:41:52.088Z,47.21
2019-03-21T01:44:20.721Z,48.67
2019-03-21T01:46:49.349Z,49.93
2019-03-21T01:49:18.016Z,50.93
2019-03-21T01:51:46.659Z,51.49
2019-03-21T01:54:15.207Z,52.71
2019-03-21T01:56:43.861Z,53.03
2019-03-21T01:59:12.486Z,55.00
2019-03-21T02:01:41.208Z,55.07
2019-03-21T02:04:10.001Z,53.27
2019-03-21T02:06:38.635Z,54.07
2019-03-21T02:09:08.823Z,54.89
2019-03-21T02:11:38.811Z,54.49
2019-03-21T02:14:07.574Z,54.84
2019-03-21T02:16:36.201Z,55.56
2019-03-21T02:19:04.874Z,55.60
2019-03-21T02:21:35.922Z,54.15
2019-03-21T02:24:04.038Z,53.70
2019-03-21T02:26:32.698Z,54.04
2019-03-21T02:29:01.193Z,52.77
2019-03-21T02:31:29.819Z,50.57
2019-03-21T02:33:58.485Z,51.69
2019-03-21T02:36:27.108Z,52.56
2019-03-21T02:38:55.664Z,52.45
2019-03-21T02:41:25.790Z,54.51
2019-03-21T02:43:54.538Z,54.47
2019-03-21T02:46:23.135Z,54.92
2019-03-21T02:48:51.807Z,54.14
2019-03-21T02:51:20.427Z,53.72
2019-03-21T02:53:49.057Z,52.20
2019-03-21T02:56:20.955Z,52.48
2019-03-21T02:58:49.567Z,52.71
2019-03-21T03:01:18.196Z,52.68
2019-03-21T03:03:46.863Z,51.87
2019-03-21T03:06:15.494Z,51.78
2019-03-21T03:08:44.040Z,52.95
2019-03-21T03:11:15.624Z,53.08
2019-03-21T03:13:47.239Z,52.62
2019-03-21T03:16:15.862Z,52.92
2019-03-21T03:18:44.527Z,51.61
2019-03-21T03:21:13.087Z,51.77
2019-03-21T03:23:41.710Z,51.74
2019-03-21T03:26:10.381Z,53.14
2019-03-21T03:28:41.908Z,52.88
2019-03-21T03:31:10.536Z,51.61
2019-03-21T03:33:39.199Z,50.87
2019-03-21T03:36:07.821Z,50.20
2019-03-21T03:38:36.447Z,50.54
2019-03-21T03:41:10.707Z,52.49
2019-03-21T03:43:39.314Z,52.49
2019-03-21T03:46:07.934Z,51.07
2019-03-21T03:48:36.625Z,51.78
2019-03-21T03:51:05.246Z,52.29
2019-03-21T03:53:33.864Z,52.19
2019-03-21T03:56:02.538Z,51.49
2019-03-21T03:58:36.754Z,54.11
2019-03-21T04:01:05.570Z,54.51
2019-03-21T04:03:34.207Z,53.38
2019-03-21T04:06:02.851Z,51.89
2019-03-21T04:08:31.458Z,51.92
2019-03-21T04:11:00.130Z,50.85
2019-03-21T04:13:28.770Z,50.40
2019-03-21T04:15:58.458Z,50.59
2019-03-21T04:18:27.114Z,50.44
2019-03-21T04:21:10.286Z,51.12
2019-03-21T04:23:38.959Z,51.13
2019-03-21T04:26:19.958Z,50.24
2019-03-21T04:28:48.629Z,50.11
2019-03-21T04:31:17.254Z,50.53
2019-03-21T04:33:47.173Z,52.59
2019-03-21T04:36:15.824Z,53.24
2019-03-21T04:38:44.576Z,51.77
2019-03-21T04:41:13.235Z,51.52
2019-03-21T04:43:41.890Z,50.84
2019-03-21T04:46:10.515Z,51.71
2019-03-21T04:48:39.139Z,52.13
2019-03-21T04:51:07.726Z,51.80
2019-03-21T04:53:36.356Z,51.91
2019-03-21T04:56:04.973Z,50.64
2019-03-21T04:58:33.646Z,51.67
2019-03-21T05:01:02.283Z,51.67
2019-03-21T05:03:32.112Z,51.46
2019-03-21T05:06:00.834Z,50.77
2019-03-21T05:08:29.462Z,51.67
2019-03-21T05:10:58.106Z,52.34
2019-03-21T05:13:26.762Z,54.48
2019-03-21T05:15:55.497Z,53.68
2019-03-21T05:18:27.025Z,54.62
2019-03-21T05:20:55.684Z,53.18
2019-03-21T05:23:24.304Z,52.47
2019-03-21T05:25:52.938Z,51.40
2019-03-21T05:28:21.598Z,51.42
2019-03-21T05:30:55.784Z,52.13
2019-03-21T05:33:24.418Z,52.16
2019-03-21T05:35:53.285Z,52.51
2019-03-21T05:38:23.410Z,53.46
2019-03-21T05:40:51.958Z,53.29
2019-03-21T05:43:23.521Z,53.64
2019-03-21T05:45:52.146Z,52.87
2019-03-21T05:48:20.781Z,51.77
2019-03-21T05:50:49.438Z,51.91
2019-03-21T05:53:18.186Z,50.21
2019-03-21T05:55:46.812Z,49.30
2019-03-21T05:58:15.472Z,49.99
2019-03-21T06:00:51.342Z,50.78
2019-03-21T06:03:25.987Z,50.47
2019-03-21T06:06:09.197Z,50.89
2019-03-21T06:08:39.850Z,51.46
2019-03-21T06:11:08.466Z,52.88
2019-03-21T06:13:37.096Z,51.14
2019-03-21T06:16:09.867Z,51.70
2019-03-21T06:19:08.499Z,51.66
2019-03-21T06:21:51.755Z,51.95
2019-03-21T06:24:23.293Z,52.00
2019-03-21T06:27:14.275Z,52.27
2019-03-21T06:29:37.205Z,52.13
2019-03-21T06:32:05.825Z,51.10
2019-03-21T06:34:34.487Z,51.16
2019-03-21T06:37:03.119Z,49.61
2019-03-21T06:39:31.755Z,50.07
2019-03-21T06:42:00.426Z,51.87
2019-03-21T06:44:29.038Z,54.00
2019-03-21T06:46:57.668Z,52.14
2019-03-21T06:49:26.331Z,51.29
2019-03-21T06:51:54.955Z,51.57
2019-03-21T06:54:23.632Z,50.14
2019-03-21T06:56:52.251Z,50.76
2019-03-21T06:59:20.879Z,51.47
2019-03-21T07:01:49.514Z,51.38
2019-03-21T07:04:18.202Z,50.22
2019-03-21T07:06:46.846Z,49.22
2019-03-21T07:09:15.466Z,49.19
2019-03-21T07:11:44.126Z,49.75
2019-03-21T07:14:12.767Z,52.27
2019-03-21T07:16:41.392Z,51.81
2019-03-21T07:19:10.051Z,49.81
2019-03-21T07:21:38.685Z,50.38
2019-03-21T07:24:07.304Z,50.72
2019-03-21T07:26:35.978Z,52.32
2019-03-21T07:29:04.709Z,52.42
2019-03-21T07:31:33.331Z,51.01
2019-03-21T07:34:02.012Z,50.89
2019-03-21T07:36:30.637Z,52.49
2019-03-21T07:38:59.289Z,50.97
2019-03-21T07:41:27.952Z,51.50
2019-03-21T07:43:56.582Z,51.21
2019-03-21T07:46:25.215Z,51.86
2019-03-21T07:48:53.907Z,50.33
2019-03-21T07:51:22.526Z,49.67
2019-03-21T07:53:51.156Z,50.98
2019-03-21T07:56:19.823Z,52.93
2019-03-21T07:58:48.517Z,52.55
2019-03-21T08:01:17.147Z,50.94
2019-03-21T08:03:45.815Z,51.82
2019-03-21T08:06:14.455Z,50.63
2019-03-21T08:08:43.086Z,52.60
2019-03-21T08:11:11.755Z,53.46
2019-03-21T08:13:40.366Z,52.25
2019-03-21T08:16:09.003Z,53.58
2019-03-21T08:18:37.675Z,52.61
2019-03-21T08:21:06.297Z,52.25
2019-03-21T08:23:34.927Z,52.35
2019-03-21T08:26:03.592Z,51.86
2019-03-21T08:28:32.222Z,51.34
2019-03-21T08:31:09.771Z,51.21
2019-03-21T08:33:38.402Z,50.67
2019-03-21T08:36:07.034Z,50.72
2019-03-21T08:38:35.695Z,50.52
2019-03-21T08:41:04.515Z,51.85
2019-03-21T08:43:33.143Z,51.52
2019-03-21T08:46:01.822Z,52.40
2019-03-21T08:48:30.450Z,51.48
2019-03-21T08:51:07.583Z,52.86
2019-03-21T08:53:29.485Z,52.25
2019-03-21T08:55:58.184Z,51.76
2019-03-21T08:58:26.810Z,51.46
2019-03-21T09:00:55.478Z,52.61
2019-03-21T09:03:24.114Z,51.94
2019-03-21T09:05:52.755Z,49.50
2019-03-21T09:08:21.422Z,51.39
2019-03-21T09:10:49.987Z,51.00
2019-03-21T09:13:18.616Z,50.69
2019-03-21T09:15:47.289Z,51.46
2019-03-21T09:18:15.920Z,53.11
2019-03-21T09:20:44.556Z,52.12
2019-03-21T09:23:13.219Z,51.01
2019-03-21T09:25:41.862Z,51.40
2019-03-21T09:28:10.491Z,52.66
2019-03-21T09:30:39.153Z,50.21
2019-03-21T09:33:07.795Z,50.71
2019-03-21T09:35:36.424Z,50.79
2019-03-21T09:38:05.095Z,51.60
2019-03-21T09:40:33.730Z,49.56
2019-03-21T09:43:03.240Z,50.94
2019-03-21T09:45:32.105Z,49.77
2019-03-21T09:48:00.743Z,50.08
2019-03-21T09:50:30.370Z,48.71
2019-03-21T09:52:59.043Z,48.66
2019-03-21T09:55:27.681Z,49.05
2019-03-21T09:57:56.305Z,49.53
2019-03-21T10:00:30.215Z,52.45
2019-03-21T10:02:58.841Z,51.92
2019-03-21T10:05:27.469Z,51.64
2019-03-21T10:07:56.133Z,51.10
2019-03-21T10:10:32.094Z,53.17
2019-03-21T10:13:00.771Z,51.94
2019-03-21T10:15:29.407Z,54.28
2019-03-21T10:17:58.050Z,54.73
2019-03-21T10:20:26.707Z,53.08
2019-03-21T10:22:55.343Z,53.93
2019-03-21T10:25:26.513Z,53.04
2019-03-21T10:27:54.363Z,53.01
2019-03-21T10:30:36.716Z,52.19
2019-03-21T10:33:06.992Z,51.91
2019-03-21T10:35:35.671Z,51.86
2019-03-21T10:38:04.900Z,50.66
2019-03-21T10:40:33.586Z,50.40
2019-03-21T10:43:02.210Z,50.43
2019-03-21T10:45:30.842Z,51.36
2019-03-21T10:47:59.495Z,49.83
2019-03-21T10:50:33.278Z,51.64
2019-03-21T10:53:01.910Z,50.94
2019-03-21T10:55:30.634Z,49.72
2019-03-21T10:57:59.277Z,49.08
2019-03-21T11:00:28.108Z,47.60
2019-03-21T11:02:56.774Z,46.81
2019-03-21T11:05:25.410Z,49.64
2019-03-21T11:07:54.039Z,50.23
2019-03-21T11:10:22.712Z,47.65
2019-03-21T11:12:51.444Z,46.60
2019-03-21T11:15:20.080Z,48.59
2019-03-21T11:17:49.311Z,48.29
2019-03-21T11:20:34.813Z,47.88
2019-03-21T11:23:03.872Z,46.74
2019-03-21T11:25:32.503Z,46.44
2019-03-21T11:28:01.138Z,47.89
2019-03-21T11:30:32.169Z,49.33
2019-03-21T11:33:01.205Z,48.48
2019-03-21T11:35:30.142Z,50.13
2019-03-21T11:37:58.809Z,49.29
2019-03-21T11:40:27.459Z,47.05
2019-03-21T11:42:56.275Z,48.10
2019-03-21T11:45:24.945Z,47.84
2019-03-21T11:47:53.559Z,47.28
2019-03-21T11:50:22.192Z,47.12
2019-03-21T11:52:50.853Z,47.78
2019-03-21T11:55:19.537Z,46.70
2019-03-21T11:57:48.192Z,46.85
2019-03-21T12:00:17.059Z,47.84
2019-03-21T12:02:45.694Z,46.48
2019-03-21T12:05:14.317Z,46.52
2019-03-21T12:07:42.991Z,47.95
2019-03-21T12:10:12.789Z,47.75
2019-03-21T12:12:41.420Z,46.25
2019-03-21T12:15:11.076Z,45.59
2019-03-21T12:17:39.705Z,43.64
2019-03-21T12:20:11.509Z,42.66
2019-03-21T12:22:40.181Z,42.93
2019-03-21T12:25:09.321Z,42.62
2019-03-21T12:27:37.947Z,43.36
2019-03-21T12:30:09.774Z,42.71
2019-03-21T12:32:38.406Z,42.63
2019-03-21T12:35:07.928Z,43.69
2019-03-21T12:37:36.617Z,44.00
2019-03-21T12:40:07.846Z,45.32
2019-03-21T12:42:36.467Z,44.40
2019-03-21T12:45:10.102Z,45.97
2019-03-21T12:47:38.729Z,45.51
2019-03-21T12:50:09.053Z,46.31
2019-03-21T12:55:08.163Z,44.36
2019-03-21T12:57:36.801Z,45.22
2019-03-21T13:00:13.540Z,44.32
2019-03-21T13:02:43.289Z,45.86
2019-03-21T13:05:17.896Z,44.72
2019-03-21T13:07:13.341Z,46.48
2019-03-21T13:07:46.524Z,43.89
2019-03-21T13:10:15.155Z,42.31
2019-03-21T13:12:43.813Z,43.07
2019-03-21T13:15:12.432Z,42.49
2019-03-21T13:17:41.069Z,41.90
2019-03-21T13:20:09.735Z,40.33
2019-03-21T13:22:38.363Z,40.21
2019-03-21T13:25:06.987Z,40.22
2019-03-21T13:27:35.640Z,41.43
2019-03-21T13:30:06.070Z,40.25
2019-03-21T13:32:34.693Z,40.23
2019-03-21T13:35:06.242Z,39.31
2019-03-21T13:37:34.195Z,38.63
2019-03-21T13:40:02.992Z,39.72
2019-03-21T13:42:31.661Z,41.76
2019-03-21T13:45:00.327Z,40.80
2019-03-21T13:47:28.922Z,40.14
2019-03-21T13:49:57.580Z,41.14
2019-03-21T13:52:26.212Z,39.69
2019-03-21T13:54:54.849Z,41.01
2019-03-21T13:57:23.501Z,42.43
2019-03-21T13:59:52.128Z,41.96
2019-03-21T14:02:20.767Z,42.54
2019-03-21T14:04:49.428Z,41.60
2019-03-21T14:07:18.060Z,40.95
2019-03-21T14:09:46.685Z,40.34
2019-03-21T14:12:15.354Z,40.55
2019-03-21T14:14:44.077Z,42.33
2019-03-21T14:17:21.508Z,41.07
2019-03-21T14:19:43.131Z,41.24
2019-03-21T14:22:11.751Z,41.66
2019-03-21T14:24:40.378Z,40.52
2019-03-21T14:27:09.041Z,40.35
2019-03-21T14:29:37.657Z,39.70
2019-03-21T14:32:06.287Z,40.40
2019-03-21T14:34:34.952Z,40.86
2019-03-21T14:37:04.550Z,39.99
2019-03-21T14:39:33.186Z,40.05
2019-03-21T14:42:01.874Z,40.38
2019-03-21T14:44:30.491Z,39.96
2019-03-21T14:46:59.117Z,41.38
2019-03-21T14:49:27.782Z,42.41
2019-03-21T14:51:56.418Z,40.83
2019-03-21T14:54:25.062Z,40.27
2019-03-21T14:56:53.720Z,40.69
2019-03-21T14:59:22.347Z,41.37
2019-03-21T15:01:51.078Z,41.03
2019-03-21T15:04:19.730Z,42.09
2019-03-21T15:06:48.392Z,40.70
2019-03-21T15:09:17.025Z,39.54
2019-03-21T15:11:45.820Z,40.54
2019-03-21T15:14:14.525Z,40.78
2019-03-21T15:16:43.151Z,41.85
2019-03-21T15:19:11.812Z,41.89
2019-03-21T15:21:40.441Z,42.32
2019-03-21T15:24:09.074Z,42.66
2019-03-21T15:26:37.734Z,42.69
2019-03-21T15:29:06.367Z,44.86
2019-03-21T15:31:34.982Z,44.53
2019-03-21T15:34:03.661Z,44.50
2019-03-21T15:36:32.294Z,43.88
2019-03-21T15:39:00.927Z,43.13
2019-03-21T15:41:29.586Z,43.64
2019-03-21T15:43:58.208Z,47.33
2019-03-21T15:46:26.844Z,47.02
2019-03-21T15:48:55.511Z,47.54
2019-03-21T15:51:24.143Z,47.61
2019-03-21T15:53:56.475Z,47.26
2019-03-21T15:56:23.153Z,48.13
2019-03-21T15:58:51.792Z,48.00
2019-03-21T16:01:20.426Z,46.77
2019-03-21T16:03:49.103Z,46.68
2019-03-21T16:06:17.739Z,46.17
2019-03-21T16:08:46.377Z,44.49
2019-03-21T16:11:15.043Z,45.79
2019-03-21T16:13:43.745Z,44.88
2019-03-21T16:16:12.378Z,44.75
2019-03-21T16:18:41.049Z,48.24
2019-03-21T16:21:09.762Z,46.66
2019-03-21T16:23:38.388Z,47.66
2019-03-21T16:26:07.047Z,46.09
2019-03-21T16:28:35.678Z,45.39
2019-03-21T16:31:04.346Z,44.99
2019-03-21T16:33:33.002Z,45.77
2019-03-21T16:36:01.636Z,45.84
2019-03-21T16:38:30.265Z,44.40
2019-03-21T16:40:58.931Z,45.25
2019-03-21T16:43:27.559Z,47.39
2019-03-21T16:45:56.686Z,46.64
2019-03-21T16:48:25.487Z,45.08
2019-03-21T16:50:54.113Z,45.06
2019-03-21T16:53:22.812Z,44.53
2019-03-21T16:55:51.489Z,43.99
2019-03-21T16:58:20.239Z,43.65
2019-03-21T17:00:48.870Z,43.89
2019-03-21T17:03:17.816Z,44.69
2019-03-21T17:05:46.540Z,46.29
2019-03-21T17:08:16.456Z,45.29
2019-03-21T17:10:45.171Z,45.06
2019-03-21T17:13:13.765Z,46.55
2019-03-21T17:15:42.401Z,48.30
2019-03-21T17:18:11.056Z,46.29
2019-03-21T17:20:39.684Z,48.80
2019-03-21T17:23:08.471Z,48.08
2019-03-21T17:25:37.124Z,46.34
2019-03-21T17:28:05.763Z,46.20
2019-03-21T17:30:34.391Z,46.27
2019-03-21T17:33:03.083Z,46.58
2019-03-21T17:35:31.699Z,45.27
2019-03-21T17:38:00.328Z,45.14
2019-03-21T17:40:28.993Z,46.21
2019-03-21T17:42:57.772Z,45.34
2019-03-21T17:45:26.422Z,46.42
2019-03-21T17:47:55.242Z,46.60
2019-03-21T17:50:23.872Z,45.43
2019-03-21T17:52:52.492Z,45.32
2019-03-21T17:55:21.196Z,44.61
2019-03-21T17:57:49.847Z,45.71
2019-03-21T18:00:22.369Z,44.69
2019-03-21T18:02:51.034Z,45.67
2019-03-21T18:05:19.679Z,44.74
2019-03-21T18:07:48.313Z,44.85
2019-03-21T18:10:25.563Z,47.14
2019-03-21T18:12:54.198Z,45.97
2019-03-21T18:15:22.827Z,45.46
2019-03-21T18:17:51.493Z,47.22
2019-03-21T18:20:20.124Z,45.80
2019-03-21T18:22:48.749Z,44.89
2019-03-21T18:25:17.439Z,43.70
2019-03-21T18:27:46.067Z,44.03
2019-03-21T18:30:15.000Z,44.16
2019-03-21T18:32:43.672Z,43.46
2019-03-21T18:35:12.537Z,43.26
2019-03-21T18:37:41.163Z,43.85
2019-03-21T18:40:11.388Z,43.64
2019-03-21T18:42:40.018Z,43.32
2019-03-21T18:45:11.454Z,42.93
2019-03-21T18:47:40.172Z,44.70
2019-03-21T18:50:11.937Z,44.93
2019-03-21T18:52:40.633Z,45.23
2019-03-21T18:55:09.748Z,44.71
2019-03-21T18:57:38.468Z,45.48
2019-03-21T19:00:12.983Z,46.74
2019-03-21T19:02:41.759Z,46.55
2019-03-21T19:05:10.363Z,47.10
2019-03-21T19:07:39.062Z,47.69
2019-03-21T19:10:09.725Z,48.34
2019-03-21T19:12:38.445Z,48.52
2019-03-21T19:15:09.510Z,48.27
2019-03-21T19:17:38.181Z,47.42
2019-03-21T19:20:09.866Z,46.99
2019-03-21T19:22:38.503Z,46.80
2019-03-21T19:25:18.427Z,45.89
2019-03-21T19:27:40.921Z,45.24
2019-03-21T19:30:12.327Z,45.32
2019-03-21T19:32:41.084Z,44.61
2019-03-21T19:35:09.812Z,45.38
2019-03-21T19:37:38.515Z,45.21
2019-03-21T19:40:09.563Z,48.36
2019-03-21T19:42:38.207Z,47.57
2019-03-21T19:45:11.839Z,47.88
2019-03-21T19:47:40.599Z,48.47
2019-03-21T19:50:11.987Z,47.72
2019-03-21T19:52:40.686Z,47.06
2019-03-21T19:55:10.658Z,47.65
2019-03-21T19:57:39.386Z,46.93
2019-03-21T20:00:23.946Z,47.83
2019-03-21T20:02:52.576Z,47.87
2019-03-21T20:05:21.398Z,48.61
2019-03-21T20:07:50.164Z,47.57
2019-03-21T20:10:20.596Z,47.09
2019-03-21T20:12:49.220Z,46.89
2019-03-21T20:15:18.474Z,47.02
2019-03-21T20:17:47.182Z,46.66
2019-03-21T20:20:17.227Z,46.75
2019-03-21T20:22:46.010Z,46.17
2019-03-21T20:25:15.435Z,45.61
2019-03-21T20:27:44.265Z,46.71
2019-03-21T20:30:18.744Z,46.55
2019-03-21T20:32:47.385Z,47.56
2019-03-21T20:35:16.126Z,47.02
2019-03-21T20:41:13.750Z,47.39
2019-03-21T20:43:42.404Z,48.38
2019-03-21T20:46:11.036Z,47.18
2019-03-21T20:48:38.413Z,47.81
2019-03-21T20:51:07.047Z,49.06
2019-03-21T20:53:35.684Z,49.47
2019-03-21T20:56:04.368Z,48.91
2019-03-21T20:58:32.993Z,51.06
2019-03-21T21:01:01.698Z,49.56
2019-03-21T21:03:30.378Z,49.05
2019-03-21T21:05:59.006Z,48.79
2019-03-21T21:08:27.642Z,48.22
2019-03-21T21:10:56.302Z,47.45
2019-03-21T21:13:24.932Z,47.79
2019-03-21T21:15:53.560Z,46.71
2019-03-21T21:18:22.223Z,47.44
2019-03-21T21:20:50.932Z,47.16
2019-03-21T21:23:19.575Z,46.86
2019-03-21T21:25:48.224Z,46.20
2019-03-21T21:28:16.847Z,46.70
2019-03-21T21:30:45.469Z,47.13
2019-03-21T21:33:14.141Z,47.23
2019-03-21T21:35:42.713Z,46.95
2019-03-21T21:38:11.354Z,46.67
2019-03-21T21:40:40.010Z,46.83
2019-03-21T21:43:08.644Z,46.61
2019-03-21T21:45:37.272Z,46.27
2019-03-21T21:48:05.941Z,46.05
2019-03-21T21:50:34.564Z,46.39
2019-03-21T21:53:03.199Z,46.48
2019-03-21T21:55:31.864Z,46.52
2019-03-21T21:58:00.505Z,46.55
2019-03-21T22:00:29.207Z,46.33
2019-03-21T22:02:57.876Z,46.32
2019-03-21T22:05:26.513Z,46.19
2019-03-21T22:07:55.067Z,46.60
2019-03-21T22:10:23.723Z,46.71
2019-03-21T22:12:52.349Z,46.89
2019-03-21T22:15:20.975Z,46.89
2019-03-21T22:17:49.628Z,46.97
2019-03-21T22:20:18.374Z,46.81
2019-03-21T22:22:46.983Z,48.85
2019-03-21T22:25:15.757Z,49.55
2019-03-21T22:27:44.379Z,48.46
2019-03-21T22:30:17.682Z,48.70
2019-03-21T22:32:46.359Z,47.81
2019-03-21T22:35:14.977Z,48.54
2019-03-21T22:37:43.705Z,47.52
2019-03-21T22:40:14.557Z,47.17
2019-03-21T22:42:43.183Z,47.62
2019-03-21T22:45:16.814Z,47.95
2019-03-21T22:47:45.486Z,47.22
2019-03-21T22:50:16.265Z,47.95
2019-03-21T22:52:45.495Z,48.34
2019-03-21T22:55:14.263Z,47.49
2019-03-21T22:57:42.872Z,47.37
2019-03-21T23:00:23.179Z,47.26
2019-03-21T23:02:51.812Z,47.07
2019-03-21T23:05:20.752Z,47.13
2019-03-21T23:07:49.478Z,48.00
2019-03-21T23:10:18.098Z,47.56
2019-03-21T23:12:46.727Z,47.22
2019-03-21T23:15:15.600Z,47.75
2019-03-21T23:17:44.223Z,47.47
2019-03-21T23:20:14.248Z,47.43
2019-03-21T23:22:43.101Z,47.79
2019-03-21T23:25:12.920Z,47.75
2019-03-21T23:27:41.541Z,47.79
2019-03-21T23:30:13.109Z,47.56
2019-03-21T23:32:41.733Z,48.63
2019-03-21T23:35:10.553Z,48.44
2019-03-21T23:37:39.205Z,48.30
2019-03-21T23:40:10.739Z,47.91
2019-03-21T23:42:39.355Z,48.09
2019-03-21T23:45:10.255Z,47.90
2019-03-21T23:47:38.883Z,47.55
2019-03-21T23:50:09.864Z,47.98
2019-03-21T23:52:38.521Z,48.02
2019-03-21T23:55:08.732Z,48.42
2019-03-21T23:57:37.353Z,48.34
